sensor_id;sensor_type;location;lat;lon;timestamp;P1;durP1;ratioP1;P2;durP2;ratioP2
41635;SDS011;27623;51.966;4.602;2022-08-03T00:01:15;15.30;;;2.38;;
41635;SDS011;27623;51.966;4.602;2022-08-03T00:03:41;5.90;;;1.30;;
41635;SDS011;27623;51.966;4.602;2022-08-03T00:06:07;6.88;;;1.45;;
41635;SDS011;27623;51.966;4.602;2022-08-03T00:08:33;10.30;;;1.15;;
41635;SDS011;27623;51.966;4.602;2022-08-03T00:10:58;8.95;;;1.40;;
41635;SDS011;27623;51.966;4.602;2022-08-03T00:13:24;7.07;;;1.13;;
41635;SDS011;27623;51.966;4.602;2022-08-03T00:15:50;11.30;;;1.33;;
41635;SDS011;27623;51.966;4.602;2022-08-03T00:18:15;6.22;;;1.55;;
41635;SDS011;27623;51.966;4.602;2022-08-03T00:20:41;6.22;;;1.42;;
41635;SDS011;27623;51.966;4.602;2022-08-03T00:23:06;8.30;;;1.77;;
41635;SDS011;27623;51.966;4.602;2022-08-03T00:25:32;7.35;;;1.23;;
41635;SDS011;27623;51.966;4.602;2022-08-03T00:28:02;5.57;;;1.33;;
41635;SDS011;27623;51.966;4.602;2022-08-03T00:30:29;8.15;;;1.50;;
41635;SDS011;27623;51.966;4.602;2022-08-03T00:32:55;12.20;;;1.40;;
41635;SDS011;27623;51.966;4.602;2022-08-03T00:35:20;8.55;;;1.38;;
41635;SDS011;27623;51.966;4.602;2022-08-03T00:37:46;7.93;;;1.25;;
41635;SDS011;27623;51.966;4.602;2022-08-03T00:40:12;6.55;;;1.42;;
41635;SDS011;27623;51.966;4.602;2022-08-03T00:42:52;5.97;;;1.48;;
41635;SDS011;27623;51.966;4.602;2022-08-03T00:45:21;6.53;;;1.30;;
41635;SDS011;27623;51.966;4.602;2022-08-03T00:47:48;10.07;;;1.52;;
41635;SDS011;27623;51.966;4.602;2022-08-03T00:50:14;8.05;;;1.40;;
41635;SDS011;27623;51.966;4.602;2022-08-03T00:52:40;8.00;;;1.73;;
41635;SDS011;27623;51.966;4.602;2022-08-03T00:55:06;8.75;;;1.77;;
41635;SDS011;27623;51.966;4.602;2022-08-03T00:57:32;10.43;;;1.33;;
41635;SDS011;27623;51.966;4.602;2022-08-03T00:59:58;11.85;;;1.42;;
41635;SDS011;27623;51.966;4.602;2022-08-03T01:02:25;7.00;;;1.48;;
41635;SDS011;27623;51.966;4.602;2022-08-03T01:04:51;5.60;;;1.25;;
41635;SDS011;27623;51.966;4.602;2022-08-03T01:18:13;7.30;;;1.55;;
41635;SDS011;27623;51.966;4.602;2022-08-03T01:20:46;10.77;;;1.80;;
41635;SDS011;27623;51.966;4.602;2022-08-03T01:23:26;9.80;;;1.60;;
41635;SDS011;27623;51.966;4.602;2022-08-03T01:31:38;6.38;;;1.88;;
41635;SDS011;27623;51.966;4.602;2022-08-03T01:34:07;8.20;;;2.38;;
41635;SDS011;27623;51.966;4.602;2022-08-03T01:36:38;8.27;;;1.80;;
41635;SDS011;27623;51.966;4.602;2022-08-03T01:39:08;10.65;;;1.90;;
41635;SDS011;27623;51.966;4.602;2022-08-03T01:41:45;11.07;;;1.95;;
41635;SDS011;27623;51.966;4.602;2022-08-03T01:44:16;10.50;;;2.05;;
41635;SDS011;27623;51.966;4.602;2022-08-03T01:46:42;10.88;;;1.77;;
41635;SDS011;27623;51.966;4.602;2022-08-03T01:49:10;11.65;;;1.73;;
41635;SDS011;27623;51.966;4.602;2022-08-03T01:51:37;10.30;;;2.15;;
41635;SDS011;27623;51.966;4.602;2022-08-03T01:54:05;9.93;;;1.77;;
41635;SDS011;27623;51.966;4.602;2022-08-03T01:56:34;11.85;;;2.35;;
41635;SDS011;27623;51.966;4.602;2022-08-03T01:59:02;5.03;;;1.42;;
41635;SDS011;27623;51.966;4.602;2022-08-03T02:01:28;11.20;;;2.20;;
41635;SDS011;27623;51.966;4.602;2022-08-03T02:03:55;7.07;;;1.80;;
41635;SDS011;27623;51.966;4.602;2022-08-03T02:06:23;8.38;;;2.10;;
41635;SDS011;27623;51.966;4.602;2022-08-03T02:08:52;8.18;;;1.80;;
41635;SDS011;27623;51.966;4.602;2022-08-03T02:11:19;8.93;;;1.80;;
41635;SDS011;27623;51.966;4.602;2022-08-03T02:13:45;6.05;;;1.38;;
41635;SDS011;27623;51.966;4.602;2022-08-03T02:16:13;14.60;;;1.40;;
41635;SDS011;27623;51.966;4.602;2022-08-03T02:18:39;10.35;;;1.52;;
41635;SDS011;27623;51.966;4.602;2022-08-03T02:21:06;10.05;;;2.10;;
41635;SDS011;27623;51.966;4.602;2022-08-03T02:23:34;8.13;;;1.70;;
41635;SDS011;27623;51.966;4.602;2022-08-03T02:26:01;9.13;;;2.78;;
41635;SDS011;27623;51.966;4.602;2022-08-03T02:28:31;8.07;;;1.90;;
41635;SDS011;27623;51.966;4.602;2022-08-03T02:30:59;9.32;;;1.85;;
41635;SDS011;27623;51.966;4.602;2022-08-03T02:33:32;9.77;;;2.50;;
41635;SDS011;27623;51.966;4.602;2022-08-03T02:36:01;11.98;;;2.00;;
41635;SDS011;27623;51.966;4.602;2022-08-03T02:38:33;12.57;;;1.80;;
41635;SDS011;27623;51.966;4.602;2022-08-03T02:41:04;10.23;;;1.90;;
41635;SDS011;27623;51.966;4.602;2022-08-03T02:43:33;9.38;;;1.83;;
41635;SDS011;27623;51.966;4.602;2022-08-03T02:45:59;10.50;;;1.70;;
41635;SDS011;27623;51.966;4.602;2022-08-03T02:48:26;9.57;;;1.90;;
41635;SDS011;27623;51.966;4.602;2022-08-03T02:50:55;11.32;;;1.67;;
41635;SDS011;27623;51.966;4.602;2022-08-03T02:53:23;8.93;;;1.80;;
41635;SDS011;27623;51.966;4.602;2022-08-03T02:55:49;7.97;;;2.67;;
41635;SDS011;27623;51.966;4.602;2022-08-03T02:58:16;8.20;;;1.50;;
41635;SDS011;27623;51.966;4.602;2022-08-03T03:00:45;14.05;;;3.70;;
41635;SDS011;27623;51.966;4.602;2022-08-03T03:03:11;12.48;;;2.45;;
41635;SDS011;27623;51.966;4.602;2022-08-03T03:05:38;15.63;;;1.70;;
41635;SDS011;27623;51.966;4.602;2022-08-03T03:08:05;11.27;;;1.80;;
41635;SDS011;27623;51.966;4.602;2022-08-03T03:10:31;10.68;;;2.75;;
41635;SDS011;27623;51.966;4.602;2022-08-03T03:12:57;7.03;;;1.77;;
41635;SDS011;27623;51.966;4.602;2022-08-03T03:15:26;7.20;;;2.28;;
41635;SDS011;27623;51.966;4.602;2022-08-03T03:17:53;11.63;;;1.90;;
41635;SDS011;27623;51.966;4.602;2022-08-03T03:20:20;10.48;;;2.10;;
41635;SDS011;27623;51.966;4.602;2022-08-03T03:22:46;8.50;;;1.67;;
41635;SDS011;27623;51.966;4.602;2022-08-03T03:25:13;7.32;;;1.77;;
41635;SDS011;27623;51.966;4.602;2022-08-03T03:27:39;9.60;;;1.58;;
41635;SDS011;27623;51.966;4.602;2022-08-03T03:30:06;9.15;;;2.00;;
41635;SDS011;27623;51.966;4.602;2022-08-03T03:32:32;7.53;;;1.25;;
41635;SDS011;27623;51.966;4.602;2022-08-03T03:34:57;10.98;;;1.85;;
41635;SDS011;27623;51.966;4.602;2022-08-03T03:37:25;18.27;;;2.47;;
41635;SDS011;27623;51.966;4.602;2022-08-03T03:39:51;16.67;;;2.40;;
41635;SDS011;27623;51.966;4.602;2022-08-03T03:42:18;17.13;;;2.45;;
41635;SDS011;27623;51.966;4.602;2022-08-03T03:44:44;9.55;;;1.92;;
41635;SDS011;27623;51.966;4.602;2022-08-03T03:47:10;11.63;;;1.98;;
41635;SDS011;27623;51.966;4.602;2022-08-03T03:49:36;8.52;;;2.08;;
41635;SDS011;27623;51.966;4.602;2022-08-03T03:52:09;10.25;;;1.88;;
41635;SDS011;27623;51.966;4.602;2022-08-03T03:54:38;11.77;;;2.20;;
41635;SDS011;27623;51.966;4.602;2022-08-03T03:57:05;12.75;;;1.83;;
41635;SDS011;27623;51.966;4.602;2022-08-03T03:59:30;12.70;;;2.45;;
41635;SDS011;27623;51.966;4.602;2022-08-03T04:01:56;10.45;;;1.98;;
41635;SDS011;27623;51.966;4.602;2022-08-03T04:04:22;12.85;;;2.45;;
41635;SDS011;27623;51.966;4.602;2022-08-03T04:07:06;9.02;;;1.85;;
41635;SDS011;27623;51.966;4.602;2022-08-03T04:09:51;14.10;;;2.00;;
41635;SDS011;27623;51.966;4.602;2022-08-03T04:12:39;9.23;;;1.83;;
41635;SDS011;27623;51.966;4.602;2022-08-03T04:15:06;13.55;;;2.08;;
41635;SDS011;27623;51.966;4.602;2022-08-03T04:17:33;9.07;;;1.40;;
41635;SDS011;27623;51.966;4.602;2022-08-03T04:19:59;12.25;;;2.30;;
41635;SDS011;27623;51.966;4.602;2022-08-03T04:22:27;13.80;;;2.00;;
41635;SDS011;27623;51.966;4.602;2022-08-03T04:25:03;11.35;;;2.67;;
41635;SDS011;27623;51.966;4.602;2022-08-03T04:27:34;13.73;;;2.42;;
41635;SDS011;27623;51.966;4.602;2022-08-03T04:30:04;9.88;;;1.83;;
41635;SDS011;27623;51.966;4.602;2022-08-03T04:32:31;12.38;;;2.30;;
41635;SDS011;27623;51.966;4.602;2022-08-03T04:34:57;15.93;;;2.92;;
41635;SDS011;27623;51.966;4.602;2022-08-03T04:37:25;14.02;;;2.22;;
41635;SDS011;27623;51.966;4.602;2022-08-03T04:39:58;13.70;;;2.00;;
41635;SDS011;27623;51.966;4.602;2022-08-03T04:42:27;11.80;;;1.95;;
41635;SDS011;27623;51.966;4.602;2022-08-03T04:44:55;12.57;;;2.47;;
41635;SDS011;27623;51.966;4.602;2022-08-03T04:47:22;9.70;;;2.85;;
41635;SDS011;27623;51.966;4.602;2022-08-03T04:49:47;12.82;;;2.00;;
41635;SDS011;27623;51.966;4.602;2022-08-03T04:52:14;8.75;;;3.13;;
41635;SDS011;27623;51.966;4.602;2022-08-03T04:54:42;12.65;;;2.35;;
41635;SDS011;27623;51.966;4.602;2022-08-03T04:57:09;7.78;;;2.05;;
41635;SDS011;27623;51.966;4.602;2022-08-03T04:59:35;8.18;;;2.60;;
41635;SDS011;27623;51.966;4.602;2022-08-03T05:02:01;14.68;;;3.90;;
41635;SDS011;27623;51.966;4.602;2022-08-03T05:04:27;9.60;;;1.90;;
41635;SDS011;27623;51.966;4.602;2022-08-03T05:06:52;11.20;;;2.70;;
41635;SDS011;27623;51.966;4.602;2022-08-03T05:09:18;8.77;;;2.22;;
41635;SDS011;27623;51.966;4.602;2022-08-03T05:11:44;13.52;;;2.15;;
41635;SDS011;27623;51.966;4.602;2022-08-03T05:14:09;10.98;;;2.00;;
41635;SDS011;27623;51.966;4.602;2022-08-03T05:16:37;9.30;;;2.35;;
41635;SDS011;27623;51.966;4.602;2022-08-03T05:19:03;16.13;;;2.60;;
41635;SDS011;27623;51.966;4.602;2022-08-03T05:21:28;13.55;;;2.35;;
41635;SDS011;27623;51.966;4.602;2022-08-03T05:23:54;11.50;;;2.58;;
41635;SDS011;27623;51.966;4.602;2022-08-03T05:26:20;12.98;;;3.13;;
41635;SDS011;27623;51.966;4.602;2022-08-03T05:28:45;11.93;;;2.67;;
41635;SDS011;27623;51.966;4.602;2022-08-03T05:31:11;12.15;;;2.97;;
41635;SDS011;27623;51.966;4.602;2022-08-03T05:33:37;12.73;;;2.78;;
41635;SDS011;27623;51.966;4.602;2022-08-03T05:36:03;11.65;;;2.05;;
41635;SDS011;27623;51.966;4.602;2022-08-03T05:38:32;10.27;;;2.42;;
41635;SDS011;27623;51.966;4.602;2022-08-03T05:40:57;11.82;;;2.53;;
41635;SDS011;27623;51.966;4.602;2022-08-03T05:43:25;11.27;;;2.53;;
41635;SDS011;27623;51.966;4.602;2022-08-03T05:45:51;11.63;;;2.45;;
41635;SDS011;27623;51.966;4.602;2022-08-03T05:48:16;10.30;;;3.08;;
41635;SDS011;27623;51.966;4.602;2022-08-03T05:50:41;12.88;;;3.25;;
41635;SDS011;27623;51.966;4.602;2022-08-03T05:53:07;14.35;;;3.78;;
41635;SDS011;27623;51.966;4.602;2022-08-03T05:55:33;13.52;;;2.70;;
41635;SDS011;27623;51.966;4.602;2022-08-03T05:57:58;11.73;;;3.25;;
41635;SDS011;27623;51.966;4.602;2022-08-03T06:00:26;15.40;;;3.83;;
41635;SDS011;27623;51.966;4.602;2022-08-03T06:02:51;14.15;;;4.40;;
41635;SDS011;27623;51.966;4.602;2022-08-03T06:05:17;14.18;;;3.90;;
41635;SDS011;27623;51.966;4.602;2022-08-03T06:07:43;19.42;;;4.43;;
41635;SDS011;27623;51.966;4.602;2022-08-03T06:10:08;19.70;;;5.50;;
41635;SDS011;27623;51.966;4.602;2022-08-03T06:12:34;16.48;;;4.93;;
41635;SDS011;27623;51.966;4.602;2022-08-03T06:15:00;12.65;;;5.03;;
41635;SDS011;27623;51.966;4.602;2022-08-03T06:17:26;17.02;;;7.07;;
41635;SDS011;27623;51.966;4.602;2022-08-03T06:19:52;27.40;;;7.75;;
41635;SDS011;27623;51.966;4.602;2022-08-03T06:22:18;19.90;;;6.88;;
41635;SDS011;27623;51.966;4.602;2022-08-03T06:24:44;14.27;;;6.55;;
41635;SDS011;27623;51.966;4.602;2022-08-03T06:27:10;20.77;;;5.68;;
41635;SDS011;27623;51.966;4.602;2022-08-03T06:29:36;24.88;;;7.03;;
41635;SDS011;27623;51.966;4.602;2022-08-03T06:32:01;17.05;;;5.60;;
41635;SDS011;27623;51.966;4.602;2022-08-03T06:34:27;20.17;;;5.72;;
41635;SDS011;27623;51.966;4.602;2022-08-03T06:36:55;17.77;;;6.28;;
41635;SDS011;27623;51.966;4.602;2022-08-03T06:39:20;21.33;;;6.10;;
41635;SDS011;27623;51.966;4.602;2022-08-03T06:41:46;207.25;;;24.88;;
41635;SDS011;27623;51.966;4.602;2022-08-03T06:44:11;37.33;;;7.95;;
41635;SDS011;27623;51.966;4.602;2022-08-03T06:46:37;18.00;;;6.38;;
41635;SDS011;27623;51.966;4.602;2022-08-03T06:49:03;18.00;;;5.90;;
41635;SDS011;27623;51.966;4.602;2022-08-03T06:51:29;16.25;;;5.97;;
41635;SDS011;27623;51.966;4.602;2022-08-03T06:53:55;17.80;;;6.18;;
41635;SDS011;27623;51.966;4.602;2022-08-03T06:56:20;16.95;;;6.55;;
41635;SDS011;27623;51.966;4.602;2022-08-03T06:58:45;12.30;;;5.85;;
41635;SDS011;27623;51.966;4.602;2022-08-03T07:01:11;18.20;;;7.15;;
41635;SDS011;27623;51.966;4.602;2022-08-03T07:03:37;21.00;;;7.32;;
41635;SDS011;27623;51.966;4.602;2022-08-03T07:06:02;21.65;;;7.78;;
41635;SDS011;27623;51.966;4.602;2022-08-03T07:08:28;21.58;;;8.07;;
41635;SDS011;27623;51.966;4.602;2022-08-03T07:10:54;21.83;;;9.25;;
41635;SDS011;27623;51.966;4.602;2022-08-03T07:13:19;23.17;;;10.15;;
41635;SDS011;27623;51.966;4.602;2022-08-03T07:15:44;24.85;;;10.63;;
41635;SDS011;27623;51.966;4.602;2022-08-03T07:18:10;20.08;;;9.80;;
41635;SDS011;27623;51.966;4.602;2022-08-03T07:20:36;24.95;;;9.98;;
41635;SDS011;27623;51.966;4.602;2022-08-03T07:23:02;17.40;;;9.45;;
41635;SDS011;27623;51.966;4.602;2022-08-03T07:25:27;20.55;;;10.93;;
41635;SDS011;27623;51.966;4.602;2022-08-03T07:27:52;20.23;;;9.32;;
41635;SDS011;27623;51.966;4.602;2022-08-03T07:30:18;18.90;;;11.13;;
41635;SDS011;27623;51.966;4.602;2022-08-03T07:32:43;143.25;;;24.63;;
41635;SDS011;27623;51.966;4.602;2022-08-03T07:35:09;24.52;;;10.80;;
41635;SDS011;27623;51.966;4.602;2022-08-03T07:37:35;19.63;;;9.95;;
41635;SDS011;27623;51.966;4.602;2022-08-03T07:40:01;28.55;;;10.35;;
41635;SDS011;27623;51.966;4.602;2022-08-03T07:42:29;19.23;;;9.93;;
41635;SDS011;27623;51.966;4.602;2022-08-03T07:44:55;23.85;;;9.98;;
41635;SDS011;27623;51.966;4.602;2022-08-03T07:47:23;58.53;;;13.38;;
41635;SDS011;27623;51.966;4.602;2022-08-03T07:49:50;32.80;;;11.00;;
41635;SDS011;27623;51.966;4.602;2022-08-03T07:52:16;21.83;;;10.48;;
41635;SDS011;27623;51.966;4.602;2022-08-03T07:54:59;20.98;;;10.40;;
41635;SDS011;27623;51.966;4.602;2022-08-03T07:57:25;21.00;;;10.20;;
41635;SDS011;27623;51.966;4.602;2022-08-03T07:59:51;21.02;;;9.30;;
41635;SDS011;27623;51.966;4.602;2022-08-03T08:02:17;20.30;;;8.77;;
41635;SDS011;27623;51.966;4.602;2022-08-03T08:04:42;20.77;;;9.63;;
41635;SDS011;27623;51.966;4.602;2022-08-03T08:07:07;14.02;;;8.23;;
41635;SDS011;27623;51.966;4.602;2022-08-03T08:09:33;26.20;;;9.57;;
41635;SDS011;27623;51.966;4.602;2022-08-03T08:11:59;24.52;;;10.13;;
41635;SDS011;27623;51.966;4.602;2022-08-03T08:14:25;18.15;;;8.60;;
41635;SDS011;27623;51.966;4.602;2022-08-03T08:16:50;21.80;;;8.93;;
41635;SDS011;27623;51.966;4.602;2022-08-03T08:19:16;22.98;;;9.98;;
41635;SDS011;27623;51.966;4.602;2022-08-03T08:21:42;21.08;;;9.25;;
41635;SDS011;27623;51.966;4.602;2022-08-03T08:24:08;19.63;;;9.27;;
41635;SDS011;27623;51.966;4.602;2022-08-03T08:26:34;22.20;;;8.50;;
41635;SDS011;27623;51.966;4.602;2022-08-03T08:29:00;21.35;;;8.65;;
41635;SDS011;27623;51.966;4.602;2022-08-03T08:31:25;18.50;;;8.57;;
41635;SDS011;27623;51.966;4.602;2022-08-03T08:33:51;19.75;;;8.90;;
41635;SDS011;27623;51.966;4.602;2022-08-03T08:36:16;18.15;;;9.00;;
41635;SDS011;27623;51.966;4.602;2022-08-03T08:38:42;19.30;;;8.32;;
41635;SDS011;27623;51.966;4.602;2022-08-03T08:41:09;19.33;;;8.43;;
41635;SDS011;27623;51.966;4.602;2022-08-03T08:43:35;20.92;;;7.40;;
41635;SDS011;27623;51.966;4.602;2022-08-03T08:46:01;15.80;;;7.78;;
41635;SDS011;27623;51.966;4.602;2022-08-03T08:48:27;17.13;;;9.00;;
41635;SDS011;27623;51.966;4.602;2022-08-03T08:50:54;18.85;;;8.13;;
41635;SDS011;27623;51.966;4.602;2022-08-03T08:53:21;19.67;;;8.10;;
41635;SDS011;27623;51.966;4.602;2022-08-03T08:55:49;22.02;;;8.15;;
41635;SDS011;27623;51.966;4.602;2022-08-03T08:58:15;21.13;;;8.23;;
41635;SDS011;27623;51.966;4.602;2022-08-03T09:00:45;20.45;;;8.38;;
41635;SDS011;27623;51.966;4.602;2022-08-03T09:03:12;19.73;;;8.50;;
41635;SDS011;27623;51.966;4.602;2022-08-03T09:05:38;17.13;;;8.15;;
41635;SDS011;27623;51.966;4.602;2022-08-03T09:08:07;16.55;;;7.78;;
41635;SDS011;27623;51.966;4.602;2022-08-03T09:10:32;19.58;;;8.50;;
41635;SDS011;27623;51.966;4.602;2022-08-03T09:12:58;17.40;;;7.43;;
41635;SDS011;27623;51.966;4.602;2022-08-03T09:15:25;18.63;;;8.27;;
41635;SDS011;27623;51.966;4.602;2022-08-03T09:17:57;17.75;;;8.73;;
41635;SDS011;27623;51.966;4.602;2022-08-03T09:20:24;14.70;;;7.93;;
41635;SDS011;27623;51.966;4.602;2022-08-03T09:22:58;22.08;;;8.63;;
41635;SDS011;27623;51.966;4.602;2022-08-03T09:25:41;22.58;;;8.68;;
41635;SDS011;27623;51.966;4.602;2022-08-03T09:28:11;15.38;;;7.90;;
41635;SDS011;27623;51.966;4.602;2022-08-03T09:30:39;13.55;;;7.78;;
41635;SDS011;27623;51.966;4.602;2022-08-03T09:33:07;18.45;;;7.72;;
41635;SDS011;27623;51.966;4.602;2022-08-03T09:35:38;24.00;;;7.82;;
41635;SDS011;27623;51.966;4.602;2022-08-03T09:38:08;19.98;;;8.05;;
41635;SDS011;27623;51.966;4.602;2022-08-03T09:40:34;15.23;;;7.85;;
41635;SDS011;27623;51.966;4.602;2022-08-03T09:43:00;15.38;;;7.18;;
41635;SDS011;27623;51.966;4.602;2022-08-03T09:45:26;15.07;;;7.63;;
41635;SDS011;27623;51.966;4.602;2022-08-03T09:47:51;15.20;;;7.22;;
41635;SDS011;27623;51.966;4.602;2022-08-03T09:50:17;13.85;;;7.45;;
41635;SDS011;27623;51.966;4.602;2022-08-03T09:52:43;21.10;;;7.75;;
41635;SDS011;27623;51.966;4.602;2022-08-03T09:55:12;14.82;;;7.28;;
41635;SDS011;27623;51.966;4.602;2022-08-03T09:57:38;16.35;;;7.47;;
41635;SDS011;27623;51.966;4.602;2022-08-03T10:00:11;21.60;;;7.22;;
41635;SDS011;27623;51.966;4.602;2022-08-03T10:02:41;22.70;;;6.75;;
41635;SDS011;27623;51.966;4.602;2022-08-03T10:05:09;22.27;;;6.85;;
41635;SDS011;27623;51.966;4.602;2022-08-03T10:10:08;16.63;;;6.55;;
41635;SDS011;27623;51.966;4.602;2022-08-03T10:12:34;15.50;;;6.20;;
41635;SDS011;27623;51.966;4.602;2022-08-03T10:15:01;16.98;;;6.18;;
41635;SDS011;27623;51.966;4.602;2022-08-03T10:17:26;22.50;;;6.93;;
41635;SDS011;27623;51.966;4.602;2022-08-03T10:19:52;16.17;;;5.80;;
41635;SDS011;27623;51.966;4.602;2022-08-03T10:22:18;14.20;;;6.10;;
41635;SDS011;27623;51.966;4.602;2022-08-03T10:25:01;23.08;;;7.05;;
41635;SDS011;27623;51.966;4.602;2022-08-03T10:27:39;13.15;;;5.90;;
41635;SDS011;27623;51.966;4.602;2022-08-03T10:30:06;14.73;;;6.05;;
41635;SDS011;27623;51.966;4.602;2022-08-03T10:35:11;15.10;;;6.25;;
41635;SDS011;27623;51.966;4.602;2022-08-03T10:37:41;14.27;;;5.07;;
41635;SDS011;27623;51.966;4.602;2022-08-03T10:40:14;12.30;;;5.50;;
41635;SDS011;27623;51.966;4.602;2022-08-03T10:42:41;12.02;;;5.55;;
41635;SDS011;27623;51.966;4.602;2022-08-03T10:45:17;14.38;;;5.15;;
41635;SDS011;27623;51.966;4.602;2022-08-03T10:47:48;15.40;;;5.57;;
41635;SDS011;27623;51.966;4.602;2022-08-03T10:50:15;17.52;;;6.28;;
41635;SDS011;27623;51.966;4.602;2022-08-03T10:52:54;16.17;;;6.10;;
41635;SDS011;27623;51.966;4.602;2022-08-03T10:55:41;16.15;;;5.50;;
41635;SDS011;27623;51.966;4.602;2022-08-03T11:01:08;12.95;;;5.07;;
41635;SDS011;27623;51.966;4.602;2022-08-03T11:06:18;14.38;;;5.20;;
41635;SDS011;27623;51.966;4.602;2022-08-03T11:08:47;11.48;;;3.72;;
41635;SDS011;27623;51.966;4.602;2022-08-03T11:13:58;12.30;;;4.70;;
41635;SDS011;27623;51.966;4.602;2022-08-03T11:16:50;11.15;;;3.72;;
41635;SDS011;27623;51.966;4.602;2022-08-03T11:19:44;13.93;;;3.70;;
41635;SDS011;27623;51.966;4.602;2022-08-03T11:22:10;14.07;;;4.63;;
41635;SDS011;27623;51.966;4.602;2022-08-03T11:48:46;10.88;;;3.83;;
41635;SDS011;27623;51.966;4.602;2022-08-03T11:53:44;9.90;;;3.67;;
41635;SDS011;27623;51.966;4.602;2022-08-03T11:56:11;10.48;;;3.45;;
41635;SDS011;27623;51.966;4.602;2022-08-03T11:58:44;12.23;;;3.53;;
41635;SDS011;27623;51.966;4.602;2022-08-03T12:01:11;12.43;;;4.85;;
41635;SDS011;27623;51.966;4.602;2022-08-03T12:03:36;11.18;;;3.72;;
41635;SDS011;27623;51.966;4.602;2022-08-03T12:06:02;12.43;;;3.92;;
41635;SDS011;27623;51.966;4.602;2022-08-03T12:08:33;10.90;;;3.05;;
41635;SDS011;27623;51.966;4.602;2022-08-03T12:11:00;13.25;;;4.13;;
41635;SDS011;27623;51.966;4.602;2022-08-03T12:13:39;10.57;;;3.45;;
41635;SDS011;27623;51.966;4.602;2022-08-03T12:16:09;12.27;;;3.30;;
41635;SDS011;27623;51.966;4.602;2022-08-03T12:18:35;12.77;;;2.90;;
41635;SDS011;27623;51.966;4.602;2022-08-03T12:21:06;14.27;;;3.53;;
41635;SDS011;27623;51.966;4.602;2022-08-03T12:23:33;8.63;;;3.28;;
41635;SDS011;27623;51.966;4.602;2022-08-03T12:26:06;10.93;;;2.50;;
41635;SDS011;27623;51.966;4.602;2022-08-03T12:31:03;9.13;;;2.67;;
41635;SDS011;27623;51.966;4.602;2022-08-03T12:36:23;6.25;;;2.30;;
41635;SDS011;27623;51.966;4.602;2022-08-03T12:38:54;10.48;;;2.40;;
41635;SDS011;27623;51.966;4.602;2022-08-03T12:41:33;9.38;;;3.03;;
41635;SDS011;27623;51.966;4.602;2022-08-03T12:44:04;12.38;;;2.35;;
41635;SDS011;27623;51.966;4.602;2022-08-03T12:46:37;8.25;;;2.05;;
41635;SDS011;27623;51.966;4.602;2022-08-03T12:49:10;10.35;;;2.53;;
41635;SDS011;27623;51.966;4.602;2022-08-03T12:54:08;7.75;;;2.17;;
41635;SDS011;27623;51.966;4.602;2022-08-03T12:59:34;9.13;;;2.10;;
41635;SDS011;27623;51.966;4.602;2022-08-03T13:02:02;9.63;;;1.58;;
41635;SDS011;27623;51.966;4.602;2022-08-03T13:04:32;8.98;;;1.70;;
41635;SDS011;27623;51.966;4.602;2022-08-03T13:06:59;7.07;;;1.75;;
41635;SDS011;27623;51.966;4.602;2022-08-03T13:09:27;7.63;;;2.53;;
41635;SDS011;27623;51.966;4.602;2022-08-03T13:12:03;6.28;;;1.30;;
41635;SDS011;27623;51.966;4.602;2022-08-03T13:14:30;9.88;;;1.55;;
41635;SDS011;27623;51.966;4.602;2022-08-03T13:16:56;4.72;;;1.40;;
41635;SDS011;27623;51.966;4.602;2022-08-03T13:19:22;6.65;;;2.08;;
41635;SDS011;27623;51.966;4.602;2022-08-03T13:21:47;7.68;;;2.05;;
41635;SDS011;27623;51.966;4.602;2022-08-03T13:24:13;7.82;;;1.50;;
41635;SDS011;27623;51.966;4.602;2022-08-03T13:26:39;7.43;;;1.30;;
41635;SDS011;27623;51.966;4.602;2022-08-03T13:29:04;5.78;;;1.40;;
41635;SDS011;27623;51.966;4.602;2022-08-03T13:31:30;5.68;;;1.38;;
41635;SDS011;27623;51.966;4.602;2022-08-03T13:33:55;10.15;;;1.52;;
41635;SDS011;27623;51.966;4.602;2022-08-03T13:36:21;5.40;;;1.40;;
41635;SDS011;27623;51.966;4.602;2022-08-03T13:38:46;7.70;;;1.50;;
41635;SDS011;27623;51.966;4.602;2022-08-03T13:41:12;5.50;;;1.33;;
41635;SDS011;27623;51.966;4.602;2022-08-03T13:43:37;5.57;;;1.20;;
41635;SDS011;27623;51.966;4.602;2022-08-03T13:46:03;6.90;;;1.35;;
41635;SDS011;27623;51.966;4.602;2022-08-03T13:48:28;10.40;;;1.48;;
41635;SDS011;27623;51.966;4.602;2022-08-03T13:50:53;3.97;;;1.25;;
41635;SDS011;27623;51.966;4.602;2022-08-03T13:53:19;5.10;;;1.05;;
41635;SDS011;27623;51.966;4.602;2022-08-03T13:55:44;6.10;;;2.08;;
41635;SDS011;27623;51.966;4.602;2022-08-03T13:58:09;6.30;;;1.42;;
41635;SDS011;27623;51.966;4.602;2022-08-03T14:00:36;5.03;;;1.40;;
41635;SDS011;27623;51.966;4.602;2022-08-03T14:03:03;6.00;;;1.30;;
41635;SDS011;27623;51.966;4.602;2022-08-03T14:05:31;4.43;;;0.95;;
41635;SDS011;27623;51.966;4.602;2022-08-03T14:07:57;2.70;;;1.05;;
41635;SDS011;27623;51.966;4.602;2022-08-03T14:10:22;4.05;;;1.42;;
41635;SDS011;27623;51.966;4.602;2022-08-03T14:12:48;6.57;;;1.67;;
41635;SDS011;27623;51.966;4.602;2022-08-03T14:15:13;4.80;;;1.10;;
41635;SDS011;27623;51.966;4.602;2022-08-03T14:17:39;6.38;;;2.25;;
41635;SDS011;27623;51.966;4.602;2022-08-03T14:20:05;3.63;;;1.20;;
41635;SDS011;27623;51.966;4.602;2022-08-03T14:22:32;7.50;;;1.90;;
41635;SDS011;27623;51.966;4.602;2022-08-03T14:24:57;7.20;;;2.00;;
41635;SDS011;27623;51.966;4.602;2022-08-03T14:27:23;5.88;;;0.93;;
41635;SDS011;27623;51.966;4.602;2022-08-03T14:29:49;3.85;;;1.38;;
41635;SDS011;27623;51.966;4.602;2022-08-03T14:32:14;6.40;;;1.10;;
41635;SDS011;27623;51.966;4.602;2022-08-03T14:34:40;3.15;;;1.25;;
41635;SDS011;27623;51.966;4.602;2022-08-03T14:37:05;2.85;;;1.05;;
41635;SDS011;27623;51.966;4.602;2022-08-03T14:39:31;6.22;;;1.67;;
41635;SDS011;27623;51.966;4.602;2022-08-03T14:41:57;5.50;;;1.35;;
41635;SDS011;27623;51.966;4.602;2022-08-03T14:44:22;4.40;;;1.10;;
41635;SDS011;27623;51.966;4.602;2022-08-03T14:46:48;7.05;;;1.25;;
41635;SDS011;27623;51.966;4.602;2022-08-03T14:49:13;6.43;;;1.27;;
41635;SDS011;27623;51.966;4.602;2022-08-03T14:51:39;5.15;;;1.15;;
41635;SDS011;27623;51.966;4.602;2022-08-03T14:54:04;4.25;;;1.08;;
41635;SDS011;27623;51.966;4.602;2022-08-03T14:56:29;3.40;;;1.40;;
41635;SDS011;27623;51.966;4.602;2022-08-03T14:58:56;6.28;;;1.00;;
41635;SDS011;27623;51.966;4.602;2022-08-03T15:01:21;6.05;;;1.30;;
41635;SDS011;27623;51.966;4.602;2022-08-03T15:03:46;5.10;;;1.70;;
41635;SDS011;27623;51.966;4.602;2022-08-03T15:06:12;11.32;;;1.75;;
41635;SDS011;27623;51.966;4.602;2022-08-03T15:08:38;5.88;;;1.42;;
41635;SDS011;27623;51.966;4.602;2022-08-03T15:11:06;4.85;;;1.27;;
41635;SDS011;27623;51.966;4.602;2022-08-03T15:13:31;3.58;;;1.15;;
41635;SDS011;27623;51.966;4.602;2022-08-03T15:15:57;7.05;;;1.40;;
41635;SDS011;27623;51.966;4.602;2022-08-03T15:18:22;5.22;;;1.10;;
41635;SDS011;27623;51.966;4.602;2022-08-03T15:20:48;6.05;;;0.95;;
41635;SDS011;27623;51.966;4.602;2022-08-03T15:23:15;6.68;;;1.67;;
41635;SDS011;27623;51.966;4.602;2022-08-03T15:25:43;6.63;;;1.25;;
41635;SDS011;27623;51.966;4.602;2022-08-03T15:28:09;4.43;;;1.38;;
41635;SDS011;27623;51.966;4.602;2022-08-03T15:30:34;8.05;;;1.45;;
41635;SDS011;27623;51.966;4.602;2022-08-03T15:33:01;7.70;;;1.73;;
41635;SDS011;27623;51.966;4.602;2022-08-03T15:35:29;4.45;;;1.25;;
41635;SDS011;27623;51.966;4.602;2022-08-03T15:38:00;5.93;;;1.15;;
41635;SDS011;27623;51.966;4.602;2022-08-03T15:40:28;9.40;;;1.90;;
41635;SDS011;27623;51.966;4.602;2022-08-03T15:42:53;4.20;;;1.77;;
41635;SDS011;27623;51.966;4.602;2022-08-03T15:45:18;5.50;;;2.78;;
41635;SDS011;27623;51.966;4.602;2022-08-03T15:47:44;7.28;;;1.33;;